Time;durP1;ratioP1;P1;durP2;ratioP2;P2;SDS_P1;SDS_P2;PMS_P1;PMS_P2;Temp;Humidity;BMP_temperature;BMP_pressure;BME280_temperature;BME280_humidity;BME280_pressure;Samples;Min_cycle;Max_cycle;Signal;HPM_P1;HPM_P2
2023/01/08 00:00:13;;;;;;;;;;;;;;;;;;2072584;28;19909;-86
2023/01/08 00:01:14;;;;;;;;;;;;;;;;;;2063759;28;19913;-86
2023/01/08 00:02:14;;;;;;;;;;;;;;;;;;2063796;28;20316;-86
2023/01/08 00:03:14;;;;;;;;;;;;;;;;;;2063586;28;19965;-86
2023/01/08 00:04:16;;;;;;;;;;;;;;;;;;2063853;28;19949;-86
2023/01/08 00:05:17;;;;;;;;;;;;;;;;;;2072736;28;19983;-86
2023/01/08 00:06:20;;;;;;;;;;;;;;;;;;2062532;28;20351;-86
2023/01/08 00:07:20;;;;;;;;;;;;;;;;;;2072185;28;19914;-85
2023/01/08 00:08:20;;;;;;;;;;;;;;;;;;2064360;28;20286;-85
2023/01/08 00:09:20;;;;;;;;;;;;;;;;;;2063879;28;20442;-85
2023/01/08 00:10:21;;;;;;;;;;;;;;;;;;2072752;28;20084;-85
2023/01/08 00:11:21;;;;;;;;;;;;;;;;;;2064078;28;19973;-85
2023/01/08 00:12:21;;;;;;;;;;;;;;;;;;2063876;28;20016;-86
2023/01/08 00:13:22;;;;;;;;;;;;;;;;;;2055822;28;20002;-85
2023/01/08 00:14:22;;;;;;;;;;;;;;;;;;2063608;28;19997;-85
2023/01/08 00:15:22;;;;;;;;;;;;;;;;;;2063696;28;19916;-86
2023/01/08 00:16:22;;;;;;;;;;;;;;;;;;2055524;28;19910;-86
2023/01/08 00:17:23;;;;;;;;;;;;;;;;;;2063693;28;19910;-86
2023/01/08 00:18:25;;;;;;;;;;;;;;;;;;2070087;28;19908;-86
2023/01/08 00:19:25;;;;;;;;;;;;;;;;;;2082969;28;19905;-85
2023/01/08 00:20:26;;;;;;;;;;;;;;;;;;2082712;28;19904;-86
2023/01/08 00:21:27;;;;;;;;;;;;;;;;;;2072069;28;19925;-86
2023/01/08 00:22:27;;;;;;;;;;;;;;;;;;1723672;28;10001026;-85
2023/01/08 00:23:28;;;;;;;;;;;;;;;;;;2059190;28;19965;-86
2023/01/08 00:24:28;;;;;;;;;;;;;;;;;;2064586;28;19916;-85
2023/01/08 00:25:28;;;;;;;;;;;;;;;;;;2064234;28;20068;-85
2023/01/08 00:26:28;;;;;;;;;;;;;;;;;;2064054;28;19945;-85
2023/01/08 00:27:29;;;;;;;;;;;;;;;;;;2072853;28;20449;-86
2023/01/08 00:28:29;;;;;;;;;;;;;;;;;;2064160;28;19914;-86
2023/01/08 00:29:30;;;;;;;;;;;;;;;;;;2063599;28;20325;-86
2023/01/08 00:30:30;;;;;;;;;;;;;;;;;;2063608;28;20082;-85
2023/01/08 00:31:30;;;;;;;;;;;;;;;;;;2055617;28;19992;-87
2023/01/08 00:32:30;;;;;;;;;;;;;;;;;;2055383;28;20304;-87
2023/01/08 00:33:31;;;;;;;;;;;;;;;;;;2063604;28;19913;-87
2023/01/08 00:34:31;;;;;;;;;;;;;;;;;;2072763;28;19917;-87
2023/01/08 00:35:31;;;;;;;;;;;;;;;;;;2063721;28;20354;-86
2023/01/08 00:36:31;;;;;;;;;;;;;;;;;;2063676;28;20361;-85
2023/01/08 00:37:32;;;;;;;;;;;;;;;;;;2072288;28;19909;-86
2023/01/08 00:38:32;;;;;;;;;;;;;;;;;;2064677;28;19910;-85
2023/01/08 00:39:32;;;;;;;;;;;;;;;;;;2073938;28;19945;-86
2023/01/08 00:40:33;;;;;;;;;;;;;;;;;;2082578;28;19976;-86
2023/01/08 00:41:33;;;;;;;;;;;;;;;;;;2082891;28;19961;-86
2023/01/08 00:42:34;;;;;;;;;;;;;;;;;;2077528;28;19917;-86
2023/01/08 00:43:34;;;;;;;;;;;;;;;;;;2076734;28;19915;-86
2023/01/08 00:44:34;;;;;;;;;;;;;;;;;;2064372;28;19968;-86
2023/01/08 00:45:35;;;;;;;;;;;;;;;;;;2063761;28;19921;-85
2023/01/08 00:46:35;;;;;;;;;;;;;;;;;;2063504;28;20375;-86
2023/01/08 00:47:35;;;;;;;;;;;;;;;;;;2055038;28;19973;-85
2023/01/08 00:48:37;;;;;;;;;;;;;;;;;;2065272;28;19940;-86
2023/01/08 00:49:37;;;;;;;;;;;;;;;;;;2066295;28;20431;-85
2023/01/08 00:50:38;;;;;;;;;;;;;;;;;;2064857;28;19957;-85
2023/01/08 00:51:38;;;;;;;;;;;;;;;;;;2063541;28;19979;-85
2023/01/08 00:52:38;;;;;;;;;;;;;;;;;;2055752;28;20411;-86
2023/01/08 00:53:38;;;;;;;;;;;;;;;;;;2055488;28;19946;-85
2023/01/08 00:54:39;;;;;;;;;;;;;;;;;;2055433;28;19910;-86
2023/01/08 00:55:39;;;;;;;;;;;;;;;;;;2063407;28;20017;-85
2023/01/08 00:56:39;;;;;;;;;;;;;;;;;;2064072;28;20377;-86
2023/01/08 00:57:40;;;;;;;;;;;;;;;;;;2055298;28;19957;-86
2023/01/08 00:58:40;;;;;;;;;;;;;;;;;;2063455;28;20400;-86
2023/01/08 00:59:40;;;;;;;;;;;;;;;;;;2063359;28;19910;-86
2023/01/08 01:00:40;;;;;;;;;;;;;;;;;;2063451;28;19984;-86
2023/01/08 01:01:41;;;;;;;;;;;;;;;;;;2072242;28;19964;-86
2023/01/08 01:02:41;;;;;;;;;;;;;;;;;;2072481;28;19916;-86
2023/01/08 01:03:42;;;;;;;;;;;;;;;;;;2072378;28;20346;-86
2023/01/08 01:04:42;;;;;;;;;;;;;;;;;;2063611;28;19914;-87
2023/01/08 01:05:42;;;;;;;;;;;;;;;;;;2063323;28;19917;-85
2023/01/08 01:06:44;;;;;;;;;;;;;;;;;;1719182;28;10001896;-87
2023/01/08 01:07:45;;;;;;;;;;;;;;;;;;2071799;28;19909;-87
2023/01/08 01:08:45;;;;;;;;;;;;;;;;;;2063603;28;20399;-87
2023/01/08 01:09:45;;;;;;;;;;;;;;;;;;2063800;28;20129;-86
2023/01/08 01:10:45;;;;;;;;;;;;;;;;;;2072395;28;19909;-85
2023/01/08 01:11:46;;;;;;;;;;;;;;;;;;2063706;28;19977;-87
2023/01/08 01:12:46;;;;;;;;;;;;;;;;;;2063629;28;20000;-86
2023/01/08 01:13:47;;;;;;;;;;;;;;;;;;2063854;28;19965;-87
2023/01/08 01:14:47;;;;;;;;;;;;;;;;;;2063324;28;20004;-87
2023/01/08 01:16:00;;;;;;;;;;;;;;;;;;2063217;28;19913;-86
2023/01/08 01:17:00;;;;;;;;;;;;;;;;;;2063062;28;19932;-87
2023/01/08 01:18:00;;;;;;;;;;;;;;;;;;2063047;28;19916;-86
2023/01/08 01:19:01;;;;;;;;;;;;;;;;;;2055083;28;20278;-85
2023/01/08 01:20:01;;;;;;;;;;;;;;;;;;2062826;28;19992;-87
2023/01/08 01:21:01;;;;;;;;;;;;;;;;;;2055180;28;19910;-86
2023/01/08 01:22:02;;;;;;;;;;;;;;;;;;2063147;28;20024;-87
2023/01/08 01:23:02;;;;;;;;;;;;;;;;;;2071214;28;20116;-85
2023/01/08 01:24:04;;;;;;;;;;;;;;;;;;2063157;28;20008;-86
2023/01/08 01:25:04;;;;;;;;;;;;;;;;;;2063346;28;20410;-87
2023/01/08 01:26:04;;;;;;;;;;;;;;;;;;2063377;28;19909;-86
2023/01/08 01:27:05;;;;;;;;;;;;;;;;;;2063169;28;20344;-86
2023/01/08 01:28:05;;;;;;;;;;;;;;;;;;2071862;28;20007;-86
2023/01/08 01:29:05;;;;;;;;;;;;;;;;;;2072017;28;19931;-87
2023/01/08 01:30:06;;;;;;;;;;;;;;;;;;2063275;28;19972;-88
2023/01/08 01:31:08;;;;;;;;;;;;;;;;;;2063258;28;19924;-87
2023/01/08 01:32:08;;;;;;;;;;;;;;;;;;2063182;28;19909;-87
2023/01/08 01:33:09;;;;;;;;;;;;;;;;;;2055144;28;19940;-88
2023/01/08 01:34:09;;;;;;;;;;;;;;;;;;1710449;28;10245519;-87
2023/01/08 01:35:09;;;;;;;;;;;;;;;;;;2063010;28;20285;-88
2023/01/08 01:36:13;;;;;;;;;;;;;;;;;;2063244;28;19910;-88
2023/01/08 01:37:14;;;;;;;;;;;;;;;;;;2063339;28;20376;-89
2023/01/08 01:38:14;;;;;;;;;;;;;;;;;;2063173;28;20157;-88
2023/01/08 01:39:14;;;;;;;;;;;;;;;;;;2072242;28;19909;-87
2023/01/08 01:40:14;;;;;;;;;;;;;;;;;;2072271;28;20239;-88
2023/01/08 01:41:21;;;;;;;;;;;;;;;;;;2071890;28;19974;-88
2023/01/08 01:42:39;;;;;;;;;;;;;;;;;;1723466;28;10077055;-87
2023/01/08 01:43:40;;;;;;;;;;;;;;;;;;2062855;28;19917;-87
2023/01/08 01:44:42;;;;;;;;;;;;;;;;;;2062990;28;19917;-87
2023/01/08 01:45:42;;;;;;;;;;;;;;;;;;2071909;28;19913;-87
2023/01/08 01:46:43;;;;;;;;;;;;;;;;;;2063258;28;19932;-87
2023/01/08 01:47:48;;;;;;;;;;;;;;;;;;2063253;28;19910;-88
2023/01/08 01:48:50;;;;;;;;;;;;;;;;;;2072025;28;19988;-87
2023/01/08 01:49:55;;;;;;;;;;;;;;;;;;2063348;28;19988;-89
2023/01/08 01:50:55;;;;;;;;;;;;;;;;;;2055871;28;19963;-87
2023/01/08 01:52:01;;;;;;;;;;;;;;;;;;2063378;28;20363;-87
2023/01/08 01:53:16;;;;;;;;;;;;;;;;;;1719675;28;10244121;-88
2023/01/08 01:54:17;;;;;;;;;;;;;;;;;;2071930;28;19921;-87
2023/01/08 01:55:17;;;;;;;;;;;;;;;;;;2071937;28;19954;-86
2023/01/08 01:56:17;;;;;;;;;;;;;;;;;;2062992;28;20008;-87
2023/01/08 01:57:18;;;;;;;;;;;;;;;;;;2055529;28;19965;-87
2023/01/08 01:58:18;;;;;;;;;;;;;;;;;;2063093;28;20564;-87
2023/01/08 01:59:18;;;;;;;;;;;;;;;;;;2063160;28;19960;-88
2023/01/08 02:00:19;;;;;;;;;;;;;;;;;;2055064;28;20334;-87
2023/01/08 02:01:20;;;;;;;;;;;;;;;;;;2055229;28;19910;-87
2023/01/08 02:02:20;;;;;;;;;;;;;;;;;;2063147;28;19960;-87
2023/01/08 02:03:22;;;;;;;;;;;;;;;;;;2072067;28;20000;-86
2023/01/08 02:04:22;;;;;;;;;;;;;;;;;;2071914;28;19909;-87
2023/01/08 02:05:27;;;;;;;;;;;;;;;;;;2052619;28;19913;-87
2023/01/08 02:06:27;;;;;;;;;;;;;;;;;;2063420;28;20012;-86
2023/01/08 02:07:35;;;;;;;;;;;;;;;;;;1380071;28;10020907;-86
2023/01/08 02:08:55;;;;;;;;;;;;;;;;;;2071110;28;20426;-87
2023/01/08 02:09:55;;;;;;;;;;;;;;;;;;2065448;28;20424;-87
2023/01/08 02:11:07;;;;;;;;;;;;;;;;;;2071208;28;19909;-87
2023/01/08 02:12:21;;;;;;;;;;;;;;;;;;2071324;28;19991;-87
2023/01/08 02:13:24;;;;;;;;;;;;;;;;;;2064486;28;19964;-86
2023/01/08 02:14:28;;;;;;;;;;;;;;;;;;2071004;28;19927;-86
2023/01/08 02:15:33;;;;;;;;;;;;;;;;;;2071636;28;19909;-86
2023/01/08 02:16:58;;;;;;;;;;;;;;;;;;2083746;28;19909;-94
2023/01/08 02:18:04;;;;;;;;;;;;;;;;;;2059816;28;20019;-94
2023/01/08 02:19:10;;;;;;;;;;;;;;;;;;2065993;28;19909;-94
2023/01/08 02:20:12;;;;;;;;;;;;;;;;;;2065563;28;20473;-93
2023/01/08 02:21:14;;;;;;;;;;;;;;;;;;2073688;28;19916;-95
2023/01/08 02:22:32;;;;;;;;;;;;;;;;;;2065017;28;20314;-94
2023/01/08 02:23:41;;;;;;;;;;;;;;;;;;2072881;28;19917;-93
2023/01/08 02:24:48;;;;;;;;;;;;;;;;;;2072962;28;20009;-94
2023/01/08 02:26:04;;;;;;;;;;;;;;;;;;2065834;28;19910;-95
2023/01/08 02:27:05;;;;;;;;;;;;;;;;;;2066820;28;19910;-94
2023/01/08 02:28:09;;;;;;;;;;;;;;;;;;2073265;28;19909;-94
2023/01/08 02:29:14;;;;;;;;;;;;;;;;;;2065384;28;19917;-94
2023/01/08 02:30:14;;;;;;;;;;;;;;;;;;2065762;28;19913;-94
2023/01/08 02:31:16;;;;;;;;;;;;;;;;;;2074677;28;19968;-94
2023/01/08 02:32:16;;;;;;;;;;;;;;;;;;2074515;28;19910;-95
2023/01/08 02:33:17;;;;;;;;;;;;;;;;;;2074654;28;19916;-94
2023/01/08 02:34:17;;;;;;;;;;;;;;;;;;2075276;28;20087;-95
2023/01/08 02:35:17;;;;;;;;;;;;;;;;;;2066416;28;19916;-93
2023/01/08 02:36:20;;;;;;;;;;;;;;;;;;2066381;28;19980;-93
2023/01/08 02:37:21;;;;;;;;;;;;;;;;;;2075054;28;19917;-93
2023/01/08 02:38:22;;;;;;;;;;;;;;;;;;2074786;28;19909;-94
2023/01/08 02:39:22;;;;;;;;;;;;;;;;;;2074354;28;19995;-94
2023/01/08 02:40:32;;;;;;;;;;;;;;;;;;2067260;28;19979;-93
2023/01/08 02:41:38;;;;;;;;;;;;;;;;;;2068126;28;19909;-93
2023/01/08 02:42:57;;;;;;;;;;;;;;;;;;2067533;28;19944;-93
2023/01/08 02:43:58;;;;;;;;;;;;;;;;;;2075889;28;20025;-94
2023/01/08 02:45:08;;;;;;;;;;;;;;;;;;2079406;28;19909;-95
2023/01/08 02:46:10;;;;;;;;;;;;;;;;;;2076668;28;19964;-94
2023/01/08 02:47:15;;;;;;;;;;;;;;;;;;2070669;28;20425;-94
2023/01/08 02:48:21;;;;;;;;;;;;;;;;;;2074455;28;19964;-95
2023/01/08 02:49:23;;;;;;;;;;;;;;;;;;2066915;28;19974;-94
2023/01/08 02:50:26;;;;;;;;;;;;;;;;;;2066293;28;19996;-93
2023/01/08 02:51:33;;;;;;;;;;;;;;;;;;2074521;28;19973;-95
2023/01/08 02:52:35;;;;;;;;;;;;;;;;;;2066889;28;20408;-95
2023/01/08 02:53:39;;;;;;;;;;;;;;;;;;2066628;28;19910;-92
2023/01/08 02:54:40;;;;;;;;;;;;;;;;;;2074452;28;19909;-95
2023/01/08 02:55:43;;;;;;;;;;;;;;;;;;2066141;28;19960;-96
2023/01/08 02:56:45;;;;;;;;;;;;;;;;;;2066595;28;19954;-94
2023/01/08 02:57:46;;;;;;;;;;;;;;;;;;2074427;28;19979;-92
2023/01/08 02:58:48;;;;;;;;;;;;;;;;;;2067228;28;19910;-94
2023/01/08 02:59:49;;;;;;;;;;;;;;;;;;2066226;28;20344;-93
2023/01/08 03:00:50;;;;;;;;;;;;;;;;;;2066208;28;19909;-93
2023/01/08 03:01:51;;;;;;;;;;;;;;;;;;2066598;28;19988;-93
2023/01/08 03:02:54;;;;;;;;;;;;;;;;;;2066332;28;20340;-95
2023/01/08 03:03:56;;;;;;;;;;;;;;;;;;2066590;28;19921;-93
2023/01/08 03:05:00;;;;;;;;;;;;;;;;;;2077092;28;19909;-93
2023/01/08 03:06:02;;;;;;;;;;;;;;;;;;2074903;28;19912;-93
2023/01/08 03:07:02;;;;;;;;;;;;;;;;;;2081917;28;19980;-92
2023/01/08 03:08:03;;;;;;;;;;;;;;;;;;2079780;28;20074;-94
2023/01/08 03:09:04;;;;;;;;;;;;;;;;;;2071317;28;20045;-92
2023/01/08 03:10:05;;;;;;;;;;;;;;;;;;2079097;28;19913;-93
2023/01/08 03:11:06;;;;;;;;;;;;;;;;;;2069196;28;19925;-91
2023/01/08 03:12:14;;;;;;;;;;;;;;;;;;2067014;28;19910;-93
2023/01/08 03:13:18;;;;;;;;;;;;;;;;;;2076256;28;19909;-91
2023/01/08 03:14:24;;;;;;;;;;;;;;;;;;2073812;28;19910;-93
2023/01/08 03:15:29;;;;;;;;;;;;;;;;;;2065960;28;19934;-91
2023/01/08 03:16:34;;;;;;;;;;;;;;;;;;2073763;28;20017;-91
2023/01/08 03:17:37;;;;;;;;;;;;;;;;;;2066252;28;20356;-94
2023/01/08 03:18:43;;;;;;;;;;;;;;;;;;2065998;28;20431;-92
2023/01/08 03:19:47;;;;;;;;;;;;;;;;;;2073797;28;19992;-92
2023/01/08 03:20:49;;;;;;;;;;;;;;;;;;2066331;28;19910;-92
2023/01/08 03:21:51;;;;;;;;;;;;;;;;;;2073882;28;20066;-93
2023/01/08 03:22:55;;;;;;;;;;;;;;;;;;2073643;28;20001;-92
2023/01/08 03:23:56;;;;;;;;;;;;;;;;;;2066469;28;19933;-92
2023/01/08 03:24:57;;;;;;;;;;;;;;;;;;2074320;28;20417;-93
2023/01/08 03:25:59;;;;;;;;;;;;;;;;;;2078174;28;19973;-93
2023/01/08 03:27:01;;;;;;;;;;;;;;;;;;2072305;28;19992;-92
2023/01/08 03:28:06;;;;;;;;;;;;;;;;;;2072753;28;19909;-93
2023/01/08 03:29:09;;;;;;;;;;;;;;;;;;2079353;28;19913;-91
2023/01/08 03:30:10;;;;;;;;;;;;;;;;;;2079068;28;19910;-91
2023/01/08 03:31:12;;;;;;;;;;;;;;;;;;2069851;28;19921;-90
2023/01/08 03:32:14;;;;;;;;;;;;;;;;;;1722751;28;10001185;-92
2023/01/08 03:33:15;;;;;;;;;;;;;;;;;;2067313;28;19909;-91
2023/01/08 03:34:19;;;;;;;;;;;;;;;;;;2074512;28;20055;-90
2023/01/08 03:35:21;;;;;;;;;;;;;;;;;;2065742;28;19916;-91
2023/01/08 03:36:23;;;;;;;;;;;;;;;;;;2065813;28;20411;-92
2023/01/08 03:37:26;;;;;;;;;;;;;;;;;;2073737;28;19909;-92
2023/01/08 03:38:29;;;;;;;;;;;;;;;;;;2073471;28;19913;-92
2023/01/08 03:39:33;;;;;;;;;;;;;;;;;;2066359;28;19909;-93
2023/01/08 03:40:39;;;;;;;;;;;;;;;;;;2066484;28;19909;-93
2023/01/08 03:41:40;;;;;;;;;;;;;;;;;;2074076;28;19909;-93
2023/01/08 03:42:41;;;;;;;;;;;;;;;;;;2065317;28;19945;-92
2023/01/08 03:43:41;;;;;;;;;;;;;;;;;;2066454;28;20304;-94
2023/01/08 03:44:41;;;;;;;;;;;;;;;;;;2065709;28;19962;-94
2023/01/08 03:45:47;;;;;;;;;;;;;;;;;;2073991;28;19914;-94
2023/01/08 03:46:49;;;;;;;;;;;;;;;;;;2066497;28;19929;-94
2023/01/08 03:47:50;;;;;;;;;;;;;;;;;;2066424;28;19910;-95
2023/01/08 03:48:51;;;;;;;;;;;;;;;;;;1721540;28;10246959;-95
2023/01/08 03:49:52;;;;;;;;;;;;;;;;;;2067662;28;20368;-95
2023/01/08 03:50:53;;;;;;;;;;;;;;;;;;2067933;28;20055;-96
2023/01/08 03:51:53;;;;;;;;;;;;;;;;;;2066724;28;20332;-86
2023/01/08 03:52:53;;;;;;;;;;;;;;;;;;2072226;28;19956;-86
2023/01/08 03:53:57;;;;;;;;;;;;;;;;;;2072105;28;20443;-86
2023/01/08 03:54:57;;;;;;;;;;;;;;;;;;2072519;28;19944;-86
2023/01/08 03:56:05;;;;;;;;;;;;;;;;;;1982543;28;10001286;-85
2023/01/08 03:57:08;;;;;;;;;;;;;;;;;;2073340;28;20472;-86
2023/01/08 03:58:08;;;;;;;;;;;;;;;;;;2072492;28;20395;-86
2023/01/08 03:59:12;;;;;;;;;;;;;;;;;;2072364;28;19965;-86
2023/01/08 04:00:12;;;;;;;;;;;;;;;;;;2072439;28;19989;-86
2023/01/08 04:01:13;;;;;;;;;;;;;;;;;;2081080;28;19909;-87
2023/01/08 04:02:13;;;;;;;;;;;;;;;;;;2072127;28;19971;-85
2023/01/08 04:03:13;;;;;;;;;;;;;;;;;;2064053;28;19952;-85
2023/01/08 04:04:14;;;;;;;;;;;;;;;;;;2064213;28;19945;-87
2023/01/08 04:05:14;;;;;;;;;;;;;;;;;;2072470;28;20370;-87
2023/01/08 04:06:14;;;;;;;;;;;;;;;;;;2072049;28;19959;-85
2023/01/08 04:07:14;;;;;;;;;;;;;;;;;;2072295;28;19909;-86
2023/01/08 04:08:15;;;;;;;;;;;;;;;;;;2072290;28;19916;-86
2023/01/08 04:09:15;;;;;;;;;;;;;;;;;;2080589;28;19913;-86
2023/01/08 04:10:15;;;;;;;;;;;;;;;;;;2071841;28;20469;-86
2023/01/08 04:11:16;;;;;;;;;;;;;;;;;;2063966;28;19920;-86
2023/01/08 04:12:16;;;;;;;;;;;;;;;;;;2072047;28;19909;-86
2023/01/08 04:13:16;;;;;;;;;;;;;;;;;;2072136;28;19914;-86
2023/01/08 04:14:17;;;;;;;;;;;;;;;;;;2063911;28;20268;-87
2023/01/08 04:15:18;;;;;;;;;;;;;;;;;;2072110;28;19913;-86
2023/01/08 04:16:18;;;;;;;;;;;;;;;;;;2072076;28;19932;-86
2023/01/08 04:17:18;;;;;;;;;;;;;;;;;;2072167;28;20340;-86
2023/01/08 04:18:18;;;;;;;;;;;;;;;;;;2072106;28;19909;-86
2023/01/08 04:19:19;;;;;;;;;;;;;;;;;;2072000;28;19956;-86
2023/01/08 04:20:19;;;;;;;;;;;;;;;;;;2071815;28;19915;-86
2023/01/08 04:21:19;;;;;;;;;;;;;;;;;;2072380;28;19921;-86
2023/01/08 04:22:19;;;;;;;;;;;;;;;;;;2080803;28;19936;-86
2023/01/08 04:23:20;;;;;;;;;;;;;;;;;;2080867;28;19913;-86
2023/01/08 04:24:20;;;;;;;;;;;;;;;;;;2080785;28;19916;-86
2023/01/08 04:25:20;;;;;;;;;;;;;;;;;;2072019;28;19910;-87
2023/01/08 04:26:20;;;;;;;;;;;;;;;;;;2072068;28;19914;-85
2023/01/08 04:27:20;;;;;;;;;;;;;;;;;;2080835;28;19987;-85
2023/01/08 04:28:21;;;;;;;;;;;;;;;;;;2080916;28;19916;-84
2023/01/08 04:29:23;;;;;;;;;;;;;;;;;;1799012;28;10001289;-85
2023/01/08 04:30:23;;;;;;;;;;;;;;;;;;2071969;28;20114;-85
2023/01/08 04:31:24;;;;;;;;;;;;;;;;;;2080116;28;20428;-86
2023/01/08 04:32:24;;;;;;;;;;;;;;;;;;2071836;28;19944;-87
2023/01/08 04:33:25;;;;;;;;;;;;;;;;;;2071981;28;20014;-86
2023/01/08 04:34:25;;;;;;;;;;;;;;;;;;2080740;28;19990;-86
2023/01/08 04:35:25;;;;;;;;;;;;;;;;;;2080754;28;19913;-86
2023/01/08 04:36:25;;;;;;;;;;;;;;;;;;2080707;28;19913;-85
2023/01/08 04:37:26;;;;;;;;;;;;;;;;;;2081027;28;20003;-86
2023/01/08 04:38:26;;;;;;;;;;;;;;;;;;2071852;28;19948;-86
2023/01/08 04:39:26;;;;;;;;;;;;;;;;;;2072845;28;20007;-85
2023/01/08 04:40:27;;;;;;;;;;;;;;;;;;2081031;28;20003;-85
2023/01/08 04:41:27;;;;;;;;;;;;;;;;;;2072008;28;19952;-85
2023/01/08 04:42:27;;;;;;;;;;;;;;;;;;2073639;28;20288;-84
2023/01/08 04:43:28;;;;;;;;;;;;;;;;;;2080794;28;19916;-85
2023/01/08 04:44:28;;;;;;;;;;;;;;;;;;2082169;28;19905;-86
2023/01/08 04:45:28;;;;;;;;;;;;;;;;;;2081755;28;19955;-86
2023/01/08 04:46:29;;;;;;;;;;;;;;;;;;2072313;28;19932;-86
2023/01/08 04:47:29;;;;;;;;;;;;;;;;;;2064176;28;19973;-86
2023/01/08 04:48:30;;;;;;;;;;;;;;;;;;2072269;28;20407;-86
2023/01/08 04:49:30;;;;;;;;;;;;;;;;;;2071863;28;19971;-86
2023/01/08 04:50:30;;;;;;;;;;;;;;;;;;2071969;28;20075;-86
2023/01/08 04:51:30;;;;;;;;;;;;;;;;;;2063651;28;19914;-86
2023/01/08 04:52:31;;;;;;;;;;;;;;;;;;2071988;28;19909;-86
2023/01/08 04:53:33;;;;;;;;;;;;;;;;;;2080999;28;20375;-86
2023/01/08 04:54:35;;;;;;;;;;;;;;;;;;2080153;28;19913;-86
2023/01/08 04:55:35;;;;;;;;;;;;;;;;;;2080665;28;19916;-86
2023/01/08 04:56:35;;;;;;;;;;;;;;;;;;2080588;28;20295;-86
2023/01/08 04:57:35;;;;;;;;;;;;;;;;;;2071918;28;19920;-85
2023/01/08 04:58:38;;;;;;;;;;;;;;;;;;2063575;28;20004;-86
2023/01/08 04:59:38;;;;;;;;;;;;;;;;;;2063681;28;20001;-87
2023/01/08 05:00:38;;;;;;;;;;;;;;;;;;2072252;28;19976;-86
2023/01/08 05:01:39;;;;;;;;;;;;;;;;;;2071574;28;20334;-85
2023/01/08 05:02:39;;;;;;;;;;;;;;;;;;2063766;28;19914;-86
2023/01/08 05:03:39;;;;;;;;;;;;;;;;;;2071850;28;20014;-85
2023/01/08 05:04:40;;;;;;;;;;;;;;;;;;2071365;28;19910;-85
2023/01/08 05:05:40;;;;;;;;;;;;;;;;;;2071933;28;20091;-85
2023/01/08 05:06:40;;;;;;;;;;;;;;;;;;2080426;28;20273;-85
2023/01/08 05:07:40;;;;;;;;;;;;;;;;;;2071528;28;20403;-86
2023/01/08 05:08:41;;;;;;;;;;;;;;;;;;2072086;28;20056;-85
2023/01/08 05:09:41;;;;;;;;;;;;;;;;;;2071543;28;20327;-86
2023/01/08 05:10:51;;;;;;;;;;;;;;;;;;2037386;28;10001357;-86
2023/01/08 05:11:51;;;;;;;;;;;;;;;;;;2080399;28;19908;-87
2023/01/08 05:12:51;;;;;;;;;;;;;;;;;;2079650;28;20394;-86
2023/01/08 05:13:52;;;;;;;;;;;;;;;;;;2071453;28;19920;-86
2023/01/08 05:14:52;;;;;;;;;;;;;;;;;;2071302;28;20019;-85
2023/01/08 05:15:52;;;;;;;;;;;;;;;;;;2080307;28;19909;-84
2023/01/08 05:16:52;;;;;;;;;;;;;;;;;;2079873;28;19967;-86
2023/01/08 05:18:03;;;;;;;;;;;;;;;;;;2071225;28;19954;-86
2023/01/08 05:19:03;;;;;;;;;;;;;;;;;;2064463;28;19910;-85
2023/01/08 05:20:03;;;;;;;;;;;;;;;;;;2071805;28;20057;-85
2023/01/08 05:21:04;;;;;;;;;;;;;;;;;;1730532;28;10075429;-87
2023/01/08 05:22:04;;;;;;;;;;;;;;;;;;2071523;28;20632;-87
2023/01/08 05:23:04;;;;;;;;;;;;;;;;;;2071642;28;19917;-87
2023/01/08 05:24:05;;;;;;;;;;;;;;;;;;2071311;28;20027;-87
2023/01/08 05:25:05;;;;;;;;;;;;;;;;;;2071175;28;19919;-86
2023/01/08 05:26:06;;;;;;;;;;;;;;;;;;2071635;28;19952;-87
2023/01/08 05:27:06;;;;;;;;;;;;;;;;;;2063388;28;19914;-87
2023/01/08 05:28:06;;;;;;;;;;;;;;;;;;1725522;28;10001145;-86
2023/01/08 05:29:08;;;;;;;;;;;;;;;;;;2071094;28;19910;-87
2023/01/08 05:30:08;;;;;;;;;;;;;;;;;;2071335;28;19913;-87
2023/01/08 05:31:10;;;;;;;;;;;;;;;;;;2071111;28;19909;-87
2023/01/08 05:32:14;;;;;;;;;;;;;;;;;;2079856;28;19959;-86
2023/01/08 05:33:14;;;;;;;;;;;;;;;;;;2070733;28;20417;-86
2023/01/08 05:34:14;;;;;;;;;;;;;;;;;;2062672;28;19910;-85
2023/01/08 05:35:14;;;;;;;;;;;;;;;;;;2062639;28;20363;-87
2023/01/08 05:36:15;;;;;;;;;;;;;;;;;;2071299;28;20000;-87
2023/01/08 05:37:15;;;;;;;;;;;;;;;;;;2079902;28;19909;-86
2023/01/08 05:38:22;;;;;;;;;;;;;;;;;;1945988;28;10001882;-86
2023/01/08 05:39:22;;;;;;;;;;;;;;;;;;2063648;28;19917;-87
2023/01/08 05:40:22;;;;;;;;;;;;;;;;;;2071153;28;19909;-86
2023/01/08 05:41:23;;;;;;;;;;;;;;;;;;2062946;28;19993;-86
2023/01/08 05:42:23;;;;;;;;;;;;;;;;;;2070797;28;19909;-87
2023/01/08 05:43:23;;;;;;;;;;;;;;;;;;2079742;28;19909;-86
2023/01/08 05:44:23;;;;;;;;;;;;;;;;;;2071095;28;19956;-87
2023/01/08 05:45:24;;;;;;;;;;;;;;;;;;2062792;28;20368;-86
2023/01/08 05:46:24;;;;;;;;;;;;;;;;;;2070839;28;20341;-87
2023/01/08 05:47:27;;;;;;;;;;;;;;;;;;2071152;28;19999;-87
2023/01/08 05:48:29;;;;;;;;;;;;;;;;;;2071422;28;19928;-86
2023/01/08 05:49:29;;;;;;;;;;;;;;;;;;2079770;28;19931;-85
2023/01/08 05:50:29;;;;;;;;;;;;;;;;;;2079403;28;20616;-85
2023/01/08 05:51:29;;;;;;;;;;;;;;;;;;2079476;28;19991;-85
2023/01/08 05:52:30;;;;;;;;;;;;;;;;;;2079599;28;19917;-85
2023/01/08 05:53:33;;;;;;;;;;;;;;;;;;2079500;28;19913;-85
2023/01/08 05:54:33;;;;;;;;;;;;;;;;;;2070948;28;20321;-85
2023/01/08 05:55:34;;;;;;;;;;;;;;;;;;2071351;28;19910;-85
2023/01/08 05:56:34;;;;;;;;;;;;;;;;;;2080120;28;20357;-85
2023/01/08 05:57:37;;;;;;;;;;;;;;;;;;2079642;28;19931;-85
2023/01/08 05:58:40;;;;;;;;;;;;;;;;;;2080213;28;19912;-85
2023/01/08 05:59:40;;;;;;;;;;;;;;;;;;2071126;28;19916;-84
2023/01/08 06:00:40;;;;;;;;;;;;;;;;;;2054665;28;19964;-85
2023/01/08 06:01:41;;;;;;;;;;;;;;;;;;1732895;28;10001227;-85
2023/01/08 06:02:45;;;;;;;;;;;;;;;;;;2079801;28;19909;-85
2023/01/08 06:03:45;;;;;;;;;;;;;;;;;;2079596;28;19931;-85
2023/01/08 06:04:46;;;;;;;;;;;;;;;;;;2079593;28;19975;-85
2023/01/08 06:05:46;;;;;;;;;;;;;;;;;;2080070;28;20031;-85
2023/01/08 06:06:46;;;;;;;;;;;;;;;;;;2081156;28;19909;-85
2023/01/08 06:07:46;;;;;;;;;;;;;;;;;;2072373;28;19962;-85
2023/01/08 06:08:47;;;;;;;;;;;;;;;;;;2064318;28;20376;-85
2023/01/08 06:09:47;;;;;;;;;;;;;;;;;;2072536;28;20360;-85
2023/01/08 06:10:47;;;;;;;;;;;;;;;;;;2081367;28;19913;-86
2023/01/08 06:11:47;;;;;;;;;;;;;;;;;;2072342;28;19916;-86
2023/01/08 06:12:48;;;;;;;;;;;;;;;;;;2074020;28;19992;-86
2023/01/08 06:13:48;;;;;;;;;;;;;;;;;;2092158;28;19913;-86
2023/01/08 06:14:48;;;;;;;;;;;;;;;;;;2092046;28;19961;-86
2023/01/08 06:15:49;;;;;;;;;;;;;;;;;;2091865;28;19976;-86
2023/01/08 06:16:49;;;;;;;;;;;;;;;;;;2086804;28;19936;-86
2023/01/08 06:17:49;;;;;;;;;;;;;;;;;;2085461;28;20367;-86
2023/01/08 06:18:49;;;;;;;;;;;;;;;;;;2082510;28;20291;-86
2023/01/08 06:19:50;;;;;;;;;;;;;;;;;;2081350;28;19909;-86
2023/01/08 06:20:50;;;;;;;;;;;;;;;;;;1726672;28;10001028;-85
2023/01/08 06:21:50;;;;;;;;;;;;;;;;;;2065319;28;19927;-85
2023/01/08 06:22:52;;;;;;;;;;;;;;;;;;2073288;28;19967;-85
2023/01/08 06:23:52;;;;;;;;;;;;;;;;;;2072736;28;20095;-86
2023/01/08 06:24:52;;;;;;;;;;;;;;;;;;2081845;28;20403;-86
2023/01/08 06:25:53;;;;;;;;;;;;;;;;;;2072846;28;19913;-85
2023/01/08 06:26:54;;;;;;;;;;;;;;;;;;2064484;28;20499;-86
2023/01/08 06:27:54;;;;;;;;;;;;;;;;;;2072298;28;19913;-85
2023/01/08 06:28:54;;;;;;;;;;;;;;;;;;2081328;28;19921;-85
2023/01/08 06:29:57;;;;;;;;;;;;;;;;;;2084576;28;19913;-87
2023/01/08 06:30:58;;;;;;;;;;;;;;;;;;2078298;28;19996;-86
2023/01/08 06:31:59;;;;;;;;;;;;;;;;;;2068459;28;19941;-85
2023/01/08 06:33:00;;;;;;;;;;;;;;;;;;2074462;28;19941;-86
2023/01/08 06:34:00;;;;;;;;;;;;;;;;;;2089967;28;19909;-86
2023/01/08 06:35:00;;;;;;;;;;;;;;;;;;2091737;28;19913;-86
2023/01/08 06:36:03;;;;;;;;;;;;;;;;;;2083286;28;19976;-86
2023/01/08 06:37:03;;;;;;;;;;;;;;;;;;2080593;28;19948;-87
2023/01/08 06:38:03;;;;;;;;;;;;;;;;;;2079049;28;20066;-87
2023/01/08 06:39:12;;;;;;;;;;;;;;;;;;2070669;28;20354;-88
2023/01/08 06:40:12;;;;;;;;;;;;;;;;;;2076629;28;19953;-88
2023/01/08 06:41:13;;;;;;;;;;;;;;;;;;2082016;28;20220;-87
2023/01/08 06:42:13;;;;;;;;;;;;;;;;;;2072861;28;19956;-87
2023/01/08 06:43:13;;;;;;;;;;;;;;;;;;2064415;28;19933;-87
2023/01/08 06:44:13;;;;;;;;;;;;;;;;;;2072488;28;19940;-87
2023/01/08 06:45:16;;;;;;;;;;;;;;;;;;2072609;28;20421;-88
2023/01/08 06:46:17;;;;;;;;;;;;;;;;;;2072864;28;20375;-86
2023/01/08 06:47:17;;;;;;;;;;;;;;;;;;2081546;28;19909;-86
2023/01/08 06:48:17;;;;;;;;;;;;;;;;;;2081466;28;20153;-87
2023/01/08 06:49:18;;;;;;;;;;;;;;;;;;2081157;28;20019;-86
2023/01/08 06:50:18;;;;;;;;;;;;;;;;;;2072400;28;20000;-86
2023/01/08 06:51:19;;;;;;;;;;;;;;;;;;2072554;28;20394;-86
2023/01/08 06:52:19;;;;;;;;;;;;;;;;;;2081319;28;20357;-87
2023/01/08 06:53:22;;;;;;;;;;;;;;;;;;2081694;28;19944;-87
2023/01/08 06:54:22;;;;;;;;;;;;;;;;;;2081503;28;19916;-87
2023/01/08 06:55:23;;;;;;;;;;;;;;;;;;2072395;28;19971;-87
2023/01/08 06:56:23;;;;;;;;;;;;;;;;;;2064562;28;19913;-87
2023/01/08 06:57:24;;;;;;;;;;;;;;;;;;2072302;28;20012;-86
2023/01/08 06:58:27;;;;;;;;;;;;;;;;;;2081026;28;19916;-87
2023/01/08 06:59:29;;;;;;;;;;;;;;;;;;2081640;28;19909;-87